Masjed Soleyman, Iran
Current Conditions -  °F | °C
As of 5:00 AM on Saturday 22 Nov 2014 (Local Time) from OIAW Reporting Station
Broken Clouds Broken Clouds  
Wind Chill: 16°   Ceiling: 10000
Heat Index: 16°   Visibility: 5mi
Dew Point: 12°   Wind: 2mph
Humidity: 77%   Direction: 70°ENE
Pressure: 29.94"   Gusts: NA
Location:  31.94°N, 49.31°E
Report Text: OIAW 220200Z 07002KT 8000 SCT040 BKN100 16/12 Q1014
Loading
Personal Weather Stations






























Interactive Weather Map New forecast layout! Learn more

10-Day Weather Forecast

Advertisements
Track Severe Weather on mobile